sensor_id;sensor_type;location;lat;lon;timestamp;temperature;humidity
71084;DHT22;58741;52.672;13.548;2023-11-19T00:00:07;4.20;99.90
71084;DHT22;58741;52.672;13.548;2023-11-19T00:02:39;4.20;99.90
71084;DHT22;58741;52.672;13.548;2023-11-19T00:05:07;4.20;99.90
71084;DHT22;58741;52.672;13.548;2023-11-19T00:07:36;4.20;99.90
71084;DHT22;58741;52.672;13.548;2023-11-19T00:10:03;4.20;99.90
71084;DHT22;58741;52.672;13.548;2023-11-19T00:12:33;4.20;99.90
71084;DHT22;58741;52.672;13.548;2023-11-19T00:15:00;4.20;99.90
71084;DHT22;58741;52.672;13.548;2023-11-19T00:17:28;4.20;99.90
71084;DHT22;58741;52.672;13.548;2023-11-19T00:19:55;4.20;99.90
71084;DHT22;58741;52.672;13.548;2023-11-19T00:22:22;4.20;99.90
71084;DHT22;58741;52.672;13.548;2023-11-19T00:24:49;4.20;99.90
71084;DHT22;58741;52.672;13.548;2023-11-19T00:27:16;4.20;99.90
71084;DHT22;58741;52.672;13.548;2023-11-19T00:29:44;4.10;99.90
71084;DHT22;58741;52.672;13.548;2023-11-19T00:32:11;4.10;99.90
71084;DHT22;58741;52.672;13.548;2023-11-19T00:34:38;4.10;99.90
71084;DHT22;58741;52.672;13.548;2023-11-19T00:37:05;4.20;99.90
71084;DHT22;58741;52.672;13.548;2023-11-19T00:39:33;4.20;99.90
71084;DHT22;58741;52.672;13.548;2023-11-19T00:42:00;4.20;99.90
71084;DHT22;58741;52.672;13.548;2023-11-19T00:44:27;4.10;99.90
71084;DHT22;58741;52.672;13.548;2023-11-19T00:46:54;4.20;99.90
71084;DHT22;58741;52.672;13.548;2023-11-19T00:49:21;4.10;99.90
71084;DHT22;58741;52.672;13.548;2023-11-19T00:51:47;4.10;99.90
71084;DHT22;58741;52.672;13.548;2023-11-19T00:54:16;4.10;99.90
71084;DHT22;58741;52.672;13.548;2023-11-19T00:56:43;4.10;99.90
71084;DHT22;58741;52.672;13.548;2023-11-19T00:59:10;4.10;99.90
71084;DHT22;58741;52.672;13.548;2023-11-19T01:01:37;4.10;99.90
71084;DHT22;58741;52.672;13.548;2023-11-19T01:04:04;4.10;99.90
71084;DHT22;58741;52.672;13.548;2023-11-19T01:06:31;4.10;99.90
71084;DHT22;58741;52.672;13.548;2023-11-19T01:08:58;4.10;99.90
71084;DHT22;58741;52.672;13.548;2023-11-19T01:11:25;4.10;99.90
71084;DHT22;58741;52.672;13.548;2023-11-19T01:13:52;4.10;99.90
71084;DHT22;58741;52.672;13.548;2023-11-19T01:16:19;4.10;99.90
71084;DHT22;58741;52.672;13.548;2023-11-19T01:18:47;4.10;99.90
71084;DHT22;58741;52.672;13.548;2023-11-19T01:21:15;4.10;99.90
71084;DHT22;58741;52.672;13.548;2023-11-19T01:23:42;4.10;99.90
71084;DHT22;58741;52.672;13.548;2023-11-19T01:26:10;4.10;99.90
71084;DHT22;58741;52.672;13.548;2023-11-19T01:28:37;4.10;99.90
71084;DHT22;58741;52.672;13.548;2023-11-19T01:31:18;4.10;99.90
71084;DHT22;58741;52.672;13.548;2023-11-19T01:33:45;4.10;99.90
71084;DHT22;58741;52.672;13.548;2023-11-19T01:36:14;4.10;99.90
71084;DHT22;58741;52.672;13.548;2023-11-19T01:38:41;4.10;99.90
71084;DHT22;58741;52.672;13.548;2023-11-19T01:41:08;4.10;99.90
71084;DHT22;58741;52.672;13.548;2023-11-19T01:43:36;4.10;99.90
71084;DHT22;58741;52.672;13.548;2023-11-19T01:46:05;4.10;99.90
71084;DHT22;58741;52.672;13.548;2023-11-19T01:48:34;4.10;99.90
71084;DHT22;58741;52.672;13.548;2023-11-19T01:51:03;4.10;99.90
71084;DHT22;58741;52.672;13.548;2023-11-19T01:53:30;4.10;99.90
71084;DHT22;58741;52.672;13.548;2023-11-19T01:55:58;4.10;99.90
71084;DHT22;58741;52.672;13.548;2023-11-19T01:58:25;4.10;99.90
71084;DHT22;58741;52.672;13.548;2023-11-19T02:00:53;4.10;99.90
71084;DHT22;58741;52.672;13.548;2023-11-19T02:03:20;4.10;99.90
71084;DHT22;58741;52.672;13.548;2023-11-19T02:05:48;4.10;99.90
71084;DHT22;58741;52.672;13.548;2023-11-19T02:08:16;4.10;99.90
71084;DHT22;58741;52.672;13.548;2023-11-19T02:10:43;4.10;99.90
71084;DHT22;58741;52.672;13.548;2023-11-19T02:13:11;4.10;99.90
71084;DHT22;58741;52.672;13.548;2023-11-19T02:15:41;4.20;99.90
71084;DHT22;58741;52.672;13.548;2023-11-19T02:18:25;4.20;99.90
71084;DHT22;58741;52.672;13.548;2023-11-19T02:20:58;4.20;99.90
71084;DHT22;58741;52.672;13.548;2023-11-19T02:23:27;4.20;99.90
71084;DHT22;58741;52.672;13.548;2023-11-19T02:28:53;4.20;99.90
71084;DHT22;58741;52.672;13.548;2023-11-19T02:31:20;4.20;99.90
71084;DHT22;58741;52.672;13.548;2023-11-19T02:33:47;4.20;99.90
71084;DHT22;58741;52.672;13.548;2023-11-19T02:36:16;4.20;99.90
71084;DHT22;58741;52.672;13.548;2023-11-19T02:38:43;4.20;99.90
71084;DHT22;58741;52.672;13.548;2023-11-19T02:41:10;4.20;99.90
71084;DHT22;58741;52.672;13.548;2023-11-19T02:43:37;4.20;99.90
71084;DHT22;58741;52.672;13.548;2023-11-19T02:46:05;4.20;99.90
71084;DHT22;58741;52.672;13.548;2023-11-19T02:48:38;4.20;99.90
71084;DHT22;58741;52.672;13.548;2023-11-19T02:51:06;4.20;99.90
71084;DHT22;58741;52.672;13.548;2023-11-19T02:53:37;4.20;99.90
71084;DHT22;58741;52.672;13.548;2023-11-19T02:56:05;4.20;99.90
71084;DHT22;58741;52.672;13.548;2023-11-19T02:58:38;4.20;99.90
71084;DHT22;58741;52.672;13.548;2023-11-19T03:01:05;4.20;99.90
71084;DHT22;58741;52.672;13.548;2023-11-19T03:03:51;4.20;99.90
71084;DHT22;58741;52.672;13.548;2023-11-19T03:06:24;4.20;99.90
71084;DHT22;58741;52.672;13.548;2023-11-19T03:08:51;4.20;99.90
71084;DHT22;58741;52.672;13.548;2023-11-19T03:11:18;4.20;99.90
71084;DHT22;58741;52.672;13.548;2023-11-19T03:13:45;4.20;99.90
71084;DHT22;58741;52.672;13.548;2023-11-19T03:16:13;4.30;99.90
71084;DHT22;58741;52.672;13.548;2023-11-19T03:18:40;4.30;99.90
71084;DHT22;58741;52.672;13.548;2023-11-19T03:21:07;4.30;99.90
71084;DHT22;58741;52.672;13.548;2023-11-19T03:23:37;4.30;99.90
71084;DHT22;58741;52.672;13.548;2023-11-19T03:26:04;4.30;99.90
71084;DHT22;58741;52.672;13.548;2023-11-19T03:28:32;4.30;99.90
71084;DHT22;58741;52.672;13.548;2023-11-19T03:30:59;4.30;99.90
71084;DHT22;58741;52.672;13.548;2023-11-19T03:33:26;4.30;99.90
71084;DHT22;58741;52.672;13.548;2023-11-19T03:35:56;4.30;99.90
71084;DHT22;58741;52.672;13.548;2023-11-19T03:38:24;4.30;99.90
71084;DHT22;58741;52.672;13.548;2023-11-19T03:40:53;4.40;99.90
71084;DHT22;58741;52.672;13.548;2023-11-19T03:43:20;4.40;99.90
71084;DHT22;58741;52.672;13.548;2023-11-19T03:45:47;4.40;99.90
71084;DHT22;58741;52.672;13.548;2023-11-19T03:48:14;4.40;99.90
71084;DHT22;58741;52.672;13.548;2023-11-19T03:50:45;4.40;99.90
71084;DHT22;58741;52.672;13.548;2023-11-19T03:53:12;4.40;99.90
71084;DHT22;58741;52.672;13.548;2023-11-19T03:55:39;4.40;99.90
71084;DHT22;58741;52.672;13.548;2023-11-19T03:58:06;4.40;99.90
71084;DHT22;58741;52.672;13.548;2023-11-19T04:00:33;4.40;99.90
71084;DHT22;58741;52.672;13.548;2023-11-19T04:03:00;4.40;99.90
71084;DHT22;58741;52.672;13.548;2023-11-19T04:05:27;4.40;99.90
71084;DHT22;58741;52.672;13.548;2023-11-19T04:07:54;4.40;99.90
71084;DHT22;58741;52.672;13.548;2023-11-19T04:10:21;4.40;99.90
71084;DHT22;58741;52.672;13.548;2023-11-19T04:12:49;4.40;99.90
71084;DHT22;58741;52.672;13.548;2023-11-19T04:15:16;4.40;99.90
71084;DHT22;58741;52.672;13.548;2023-11-19T04:17:43;4.30;99.90
71084;DHT22;58741;52.672;13.548;2023-11-19T04:20:11;4.40;99.90
71084;DHT22;58741;52.672;13.548;2023-11-19T04:22:41;4.40;99.90
71084;DHT22;58741;52.672;13.548;2023-11-19T04:25:08;4.40;99.90
71084;DHT22;58741;52.672;13.548;2023-11-19T04:27:35;4.30;99.90
71084;DHT22;58741;52.672;13.548;2023-11-19T04:30:02;4.40;99.90
71084;DHT22;58741;52.672;13.548;2023-11-19T04:32:30;4.40;99.90
71084;DHT22;58741;52.672;13.548;2023-11-19T04:34:57;4.40;99.90
71084;DHT22;58741;52.672;13.548;2023-11-19T04:37:24;4.40;99.90
71084;DHT22;58741;52.672;13.548;2023-11-19T04:39:51;4.40;99.90
71084;DHT22;58741;52.672;13.548;2023-11-19T04:42:18;4.40;99.90
71084;DHT22;58741;52.672;13.548;2023-11-19T04:44:45;4.40;99.90
71084;DHT22;58741;52.672;13.548;2023-11-19T04:47:12;4.40;99.90
71084;DHT22;58741;52.672;13.548;2023-11-19T04:49:42;4.40;99.90
71084;DHT22;58741;52.672;13.548;2023-11-19T04:52:09;4.40;99.90
71084;DHT22;58741;52.672;13.548;2023-11-19T04:54:41;4.40;99.90
71084;DHT22;58741;52.672;13.548;2023-11-19T04:57:09;4.40;99.90
71084;DHT22;58741;52.672;13.548;2023-11-19T04:59:39;4.40;99.90
71084;DHT22;58741;52.672;13.548;2023-11-19T05:02:06;4.40;99.90
71084;DHT22;58741;52.672;13.548;2023-11-19T05:04:32;4.40;99.90
71084;DHT22;58741;52.672;13.548;2023-11-19T05:06:59;4.40;99.90
71084;DHT22;58741;52.672;13.548;2023-11-19T05:09:27;4.40;99.90
71084;DHT22;58741;52.672;13.548;2023-11-19T05:11:54;4.40;99.90
71084;DHT22;58741;52.672;13.548;2023-11-19T05:14:20;4.40;99.90
71084;DHT22;58741;52.672;13.548;2023-11-19T05:16:48;4.40;99.90
71084;DHT22;58741;52.672;13.548;2023-11-19T05:19:16;4.30;99.90
71084;DHT22;58741;52.672;13.548;2023-11-19T05:21:43;4.40;99.90
71084;DHT22;58741;52.672;13.548;2023-11-19T05:24:10;4.40;99.90
71084;DHT22;58741;52.672;13.548;2023-11-19T05:26:38;4.40;99.90
71084;DHT22;58741;52.672;13.548;2023-11-19T05:29:05;4.40;99.90
71084;DHT22;58741;52.672;13.548;2023-11-19T05:31:32;4.40;99.90
71084;DHT22;58741;52.672;13.548;2023-11-19T05:34:02;4.40;99.90
71084;DHT22;58741;52.672;13.548;2023-11-19T05:36:29;4.40;99.90
71084;DHT22;58741;52.672;13.548;2023-11-19T05:38:56;4.40;99.90
71084;DHT22;58741;52.672;13.548;2023-11-19T05:41:23;4.40;99.90
71084;DHT22;58741;52.672;13.548;2023-11-19T05:43:50;4.40;99.90
71084;DHT22;58741;52.672;13.548;2023-11-19T05:46:18;4.40;99.90
71084;DHT22;58741;52.672;13.548;2023-11-19T05:48:47;4.40;99.90
71084;DHT22;58741;52.672;13.548;2023-11-19T05:51:14;4.40;99.90
71084;DHT22;58741;52.672;13.548;2023-11-19T05:53:44;4.40;99.90
71084;DHT22;58741;52.672;13.548;2023-11-19T05:56:14;4.40;99.90
71084;DHT22;58741;52.672;13.548;2023-11-19T05:58:42;4.40;99.90
71084;DHT22;58741;52.672;13.548;2023-11-19T06:01:11;4.40;99.90
71084;DHT22;58741;52.672;13.548;2023-11-19T06:03:38;4.40;99.90
71084;DHT22;58741;52.672;13.548;2023-11-19T06:06:05;4.40;99.90
71084;DHT22;58741;52.672;13.548;2023-11-19T06:08:32;4.40;99.90
71084;DHT22;58741;52.672;13.548;2023-11-19T06:10:59;4.40;99.90
71084;DHT22;58741;52.672;13.548;2023-11-19T06:13:28;4.40;99.90
71084;DHT22;58741;52.672;13.548;2023-11-19T06:15:57;4.40;99.90
71084;DHT22;58741;52.672;13.548;2023-11-19T06:18:24;4.40;99.90
71084;DHT22;58741;52.672;13.548;2023-11-19T06:20:52;4.40;99.90
71084;DHT22;58741;52.672;13.548;2023-11-19T06:23:18;4.40;99.90
71084;DHT22;58741;52.672;13.548;2023-11-19T06:25:46;4.50;99.90
71084;DHT22;58741;52.672;13.548;2023-11-19T06:28:13;4.50;99.90
71084;DHT22;58741;52.672;13.548;2023-11-19T06:30:40;4.50;99.90
71084;DHT22;58741;52.672;13.548;2023-11-19T06:33:08;4.50;99.90
71084;DHT22;58741;52.672;13.548;2023-11-19T06:35:35;4.50;99.90
71084;DHT22;58741;52.672;13.548;2023-11-19T06:38:04;4.50;99.90
71084;DHT22;58741;52.672;13.548;2023-11-19T06:40:34;4.50;99.90
71084;DHT22;58741;52.672;13.548;2023-11-19T06:43:04;4.50;99.90
71084;DHT22;58741;52.672;13.548;2023-11-19T06:45:32;4.50;99.90
71084;DHT22;58741;52.672;13.548;2023-11-19T06:48:01;4.50;99.90
71084;DHT22;58741;52.672;13.548;2023-11-19T06:50:30;4.50;99.90
71084;DHT22;58741;52.672;13.548;2023-11-19T06:52:57;4.60;99.90
71084;DHT22;58741;52.672;13.548;2023-11-19T06:55:24;4.60;99.90
71084;DHT22;58741;52.672;13.548;2023-11-19T06:57:51;4.60;99.90
71084;DHT22;58741;52.672;13.548;2023-11-19T07:00:18;4.60;99.90
71084;DHT22;58741;52.672;13.548;2023-11-19T07:02:45;4.60;99.90
71084;DHT22;58741;52.672;13.548;2023-11-19T07:05:12;4.60;99.90
71084;DHT22;58741;52.672;13.548;2023-11-19T07:07:39;4.60;99.90
71084;DHT22;58741;52.672;13.548;2023-11-19T07:10:07;4.60;99.90
71084;DHT22;58741;52.672;13.548;2023-11-19T07:12:36;4.60;99.90
71084;DHT22;58741;52.672;13.548;2023-11-19T07:15:03;4.70;99.90
71084;DHT22;58741;52.672;13.548;2023-11-19T07:17:30;4.70;99.90
71084;DHT22;58741;52.672;13.548;2023-11-19T07:19:57;4.70;99.90
71084;DHT22;58741;52.672;13.548;2023-11-19T07:22:27;4.70;99.90
71084;DHT22;58741;52.672;13.548;2023-11-19T07:24:56;4.70;99.90
71084;DHT22;58741;52.672;13.548;2023-11-19T07:27:23;4.70;99.90
71084;DHT22;58741;52.672;13.548;2023-11-19T07:29:51;4.70;99.90
71084;DHT22;58741;52.672;13.548;2023-11-19T07:32:18;4.70;99.90
71084;DHT22;58741;52.672;13.548;2023-11-19T07:34:45;4.80;99.90
71084;DHT22;58741;52.672;13.548;2023-11-19T07:37:12;4.80;99.90
71084;DHT22;58741;52.672;13.548;2023-11-19T07:39:39;4.80;99.90
71084;DHT22;58741;52.672;13.548;2023-11-19T07:42:08;4.80;99.90
71084;DHT22;58741;52.672;13.548;2023-11-19T07:44:36;4.80;99.90
71084;DHT22;58741;52.672;13.548;2023-11-19T07:47:03;4.90;99.90
71084;DHT22;58741;52.672;13.548;2023-11-19T07:49:30;4.90;99.90
71084;DHT22;58741;52.672;13.548;2023-11-19T07:51:57;4.90;99.90
71084;DHT22;58741;52.672;13.548;2023-11-19T07:54:24;4.90;99.90
71084;DHT22;58741;52.672;13.548;2023-11-19T07:56:51;4.90;99.90
71084;DHT22;58741;52.672;13.548;2023-11-19T07:59:18;4.90;99.90
71084;DHT22;58741;52.672;13.548;2023-11-19T08:01:45;4.90;99.90
71084;DHT22;58741;52.672;13.548;2023-11-19T08:04:12;4.90;99.90
71084;DHT22;58741;52.672;13.548;2023-11-19T08:06:39;5.00;99.90
71084;DHT22;58741;52.672;13.548;2023-11-19T08:09:06;5.00;99.90
71084;DHT22;58741;52.672;13.548;2023-11-19T08:11:33;5.00;99.90
71084;DHT22;58741;52.672;13.548;2023-11-19T08:14:00;5.00;99.90
71084;DHT22;58741;52.672;13.548;2023-11-19T08:16:27;5.00;99.90
71084;DHT22;58741;52.672;13.548;2023-11-19T08:18:54;5.10;99.90
71084;DHT22;58741;52.672;13.548;2023-11-19T08:21:21;5.10;99.90
71084;DHT22;58741;52.672;13.548;2023-11-19T08:23:49;5.10;99.90
71084;DHT22;58741;52.672;13.548;2023-11-19T08:26:16;5.10;99.90
71084;DHT22;58741;52.672;13.548;2023-11-19T08:28:47;5.10;99.90
71084;DHT22;58741;52.672;13.548;2023-11-19T08:31:14;5.20;99.90
71084;DHT22;58741;52.672;13.548;2023-11-19T08:33:41;5.20;99.90
71084;DHT22;58741;52.672;13.548;2023-11-19T08:36:08;5.20;99.90
71084;DHT22;58741;52.672;13.548;2023-11-19T08:38:35;5.20;99.90
71084;DHT22;58741;52.672;13.548;2023-11-19T08:41:02;5.30;99.90
71084;DHT22;58741;52.672;13.548;2023-11-19T08:43:29;5.30;99.90
71084;DHT22;58741;52.672;13.548;2023-11-19T08:45:58;5.30;99.90
71084;DHT22;58741;52.672;13.548;2023-11-19T08:48:25;5.30;99.90
71084;DHT22;58741;52.672;13.548;2023-11-19T08:50:52;5.40;99.90
71084;DHT22;58741;52.672;13.548;2023-11-19T08:53:19;5.40;99.90
71084;DHT22;58741;52.672;13.548;2023-11-19T08:55:47;5.50;99.90
71084;DHT22;58741;52.672;13.548;2023-11-19T08:58:14;5.50;99.90
71084;DHT22;58741;52.672;13.548;2023-11-19T09:00:41;5.50;99.90
71084;DHT22;58741;52.672;13.548;2023-11-19T09:03:08;5.60;99.90
71084;DHT22;58741;52.672;13.548;2023-11-19T09:05:36;5.60;99.90
71084;DHT22;58741;52.672;13.548;2023-11-19T09:08:04;5.60;99.90
71084;DHT22;58741;52.672;13.548;2023-11-19T09:10:31;5.70;99.90
71084;DHT22;58741;52.672;13.548;2023-11-19T09:12:58;5.70;99.90
71084;DHT22;58741;52.672;13.548;2023-11-19T09:15:25;5.80;99.90
71084;DHT22;58741;52.672;13.548;2023-11-19T09:17:52;5.80;99.90
71084;DHT22;58741;52.672;13.548;2023-11-19T09:20:19;5.90;99.90
71084;DHT22;58741;52.672;13.548;2023-11-19T09:22:46;5.90;99.90
71084;DHT22;58741;52.672;13.548;2023-11-19T09:25:13;5.90;99.90
71084;DHT22;58741;52.672;13.548;2023-11-19T09:27:44;5.90;99.90
71084;DHT22;58741;52.672;13.548;2023-11-19T09:30:11;5.90;99.90
71084;DHT22;58741;52.672;13.548;2023-11-19T09:32:39;6.00;99.90
71084;DHT22;58741;52.672;13.548;2023-11-19T09:35:07;6.00;99.90
71084;DHT22;58741;52.672;13.548;2023-11-19T09:37:35;6.00;99.90
71084;DHT22;58741;52.672;13.548;2023-11-19T09:40:02;6.10;99.90
71084;DHT22;58741;52.672;13.548;2023-11-19T09:42:30;6.10;99.90
71084;DHT22;58741;52.672;13.548;2023-11-19T09:44:59;6.20;99.90
71084;DHT22;58741;52.672;13.548;2023-11-19T09:47:27;6.30;99.90
71084;DHT22;58741;52.672;13.548;2023-11-19T09:49:54;6.30;99.90
71084;DHT22;58741;52.672;13.548;2023-11-19T09:52:24;6.50;99.90
71084;DHT22;58741;52.672;13.548;2023-11-19T09:54:51;6.60;99.90
71084;DHT22;58741;52.672;13.548;2023-11-19T09:57:18;6.70;99.90
71084;DHT22;58741;52.672;13.548;2023-11-19T09:59:46;6.70;99.90
71084;DHT22;58741;52.672;13.548;2023-11-19T10:02:14;6.80;99.90
71084;DHT22;58741;52.672;13.548;2023-11-19T10:04:42;6.90;99.90
71084;DHT22;58741;52.672;13.548;2023-11-19T10:07:11;7.00;99.90
71084;DHT22;58741;52.672;13.548;2023-11-19T10:09:38;7.00;99.90
71084;DHT22;58741;52.672;13.548;2023-11-19T10:12:05;7.10;99.90
71084;DHT22;58741;52.672;13.548;2023-11-19T10:14:32;7.20;99.90
71084;DHT22;58741;52.672;13.548;2023-11-19T10:17:01;7.30;99.90
71084;DHT22;58741;52.672;13.548;2023-11-19T10:19:31;7.40;99.90
71084;DHT22;58741;52.672;13.548;2023-11-19T10:22:03;7.50;99.90
71084;DHT22;58741;52.672;13.548;2023-11-19T10:24:34;7.60;99.90
71084;DHT22;58741;52.672;13.548;2023-11-19T10:27:07;7.70;99.90
71084;DHT22;58741;52.672;13.548;2023-11-19T10:29:38;7.80;99.90
71084;DHT22;58741;52.672;13.548;2023-11-19T10:32:05;7.80;99.90
71084;DHT22;58741;52.672;13.548;2023-11-19T10:34:52;7.90;99.90
71084;DHT22;58741;52.672;13.548;2023-11-19T10:37:29;8.10;99.90
71084;DHT22;58741;52.672;13.548;2023-11-19T10:40:01;8.20;99.90
71084;DHT22;58741;52.672;13.548;2023-11-19T10:42:31;8.30;99.90
71084;DHT22;58741;52.672;13.548;2023-11-19T10:44:58;8.30;99.90
71084;DHT22;58741;52.672;13.548;2023-11-19T10:47:25;8.50;99.90
71084;DHT22;58741;52.672;13.548;2023-11-19T10:49:55;8.60;99.90
71084;DHT22;58741;52.672;13.548;2023-11-19T10:52:23;8.80;99.90
71084;DHT22;58741;52.672;13.548;2023-11-19T10:54:51;8.90;99.90
71084;DHT22;58741;52.672;13.548;2023-11-19T10:57:21;9.00;99.90
71084;DHT22;58741;52.672;13.548;2023-11-19T11:00:01;9.20;99.90
71084;DHT22;58741;52.672;13.548;2023-11-19T11:02:30;9.30;99.90
71084;DHT22;58741;52.672;13.548;2023-11-19T11:04:59;9.50;99.90
71084;DHT22;58741;52.672;13.548;2023-11-19T11:07:26;9.60;99.90
71084;DHT22;58741;52.672;13.548;2023-11-19T11:10:06;9.60;99.90
71084;DHT22;58741;52.672;13.548;2023-11-19T11:12:36;9.70;99.90
71084;DHT22;58741;52.672;13.548;2023-11-19T11:15:05;9.70;99.90
71084;DHT22;58741;52.672;13.548;2023-11-19T11:17:33;9.80;99.90
71084;DHT22;58741;52.672;13.548;2023-11-19T11:20:01;9.90;99.90
71084;DHT22;58741;52.672;13.548;2023-11-19T11:22:36;10.00;99.90
71084;DHT22;58741;52.672;13.548;2023-11-19T11:31:08;10.20;99.90
71084;DHT22;58741;52.672;13.548;2023-11-19T11:36:31;10.40;99.90
71084;DHT22;58741;52.672;13.548;2023-11-19T11:39:02;10.50;99.90
71084;DHT22;58741;52.672;13.548;2023-11-19T11:41:34;10.50;99.90
71084;DHT22;58741;52.672;13.548;2023-11-19T11:44:02;10.60;99.90
71084;DHT22;58741;52.672;13.548;2023-11-19T11:49:05;10.80;99.90
71084;DHT22;58741;52.672;13.548;2023-11-19T11:54:26;10.90;99.90
71084;DHT22;58741;52.672;13.548;2023-11-19T11:57:06;10.90;99.90
71084;DHT22;58741;52.672;13.548;2023-11-19T11:59:47;10.90;99.90
71084;DHT22;58741;52.672;13.548;2023-11-19T12:02:17;10.90;99.90
71084;DHT22;58741;52.672;13.548;2023-11-19T12:04:49;10.90;99.90
71084;DHT22;58741;52.672;13.548;2023-11-19T12:07:21;10.90;99.90
71084;DHT22;58741;52.672;13.548;2023-11-19T12:10:05;10.90;99.90
71084;DHT22;58741;52.672;13.548;2023-11-19T12:12:34;11.00;99.90
71084;DHT22;58741;52.672;13.548;2023-11-19T12:15:07;11.00;99.90
71084;DHT22;58741;52.672;13.548;2023-11-19T12:17:40;11.00;99.90
71084;DHT22;58741;52.672;13.548;2023-11-19T12:20:08;11.00;99.90
71084;DHT22;58741;52.672;13.548;2023-11-19T12:22:37;11.00;99.90
71084;DHT22;58741;52.672;13.548;2023-11-19T12:25:09;11.00;99.90
71084;DHT22;58741;52.672;13.548;2023-11-19T12:27:39;11.00;99.90
71084;DHT22;58741;52.672;13.548;2023-11-19T12:30:06;11.00;99.90
71084;DHT22;58741;52.672;13.548;2023-11-19T12:32:44;11.00;99.90
71084;DHT22;58741;52.672;13.548;2023-11-19T12:35:12;11.00;99.90
71084;DHT22;58741;52.672;13.548;2023-11-19T12:37:59;11.00;99.90
71084;DHT22;58741;52.672;13.548;2023-11-19T12:40:26;11.00;99.90
71084;DHT22;58741;52.672;13.548;2023-11-19T12:42:55;11.00;99.90
71084;DHT22;58741;52.672;13.548;2023-11-19T12:45:22;11.00;99.90
71084;DHT22;58741;52.672;13.548;2023-11-19T12:48:04;10.90;99.90
71084;DHT22;58741;52.672;13.548;2023-11-19T12:50:57;11.00;99.90
71084;DHT22;58741;52.672;13.548;2023-11-19T12:53:25;11.00;99.90
71084;DHT22;58741;52.672;13.548;2023-11-19T12:55:53;11.00;99.90
71084;DHT22;58741;52.672;13.548;2023-11-19T12:58:30;11.00;99.90
71084;DHT22;58741;52.672;13.548;2023-11-19T13:01:03;11.00;99.90
71084;DHT22;58741;52.672;13.548;2023-11-19T13:03:34;11.00;99.90
71084;DHT22;58741;52.672;13.548;2023-11-19T13:06:02;11.10;99.90
71084;DHT22;58741;52.672;13.548;2023-11-19T13:08:39;11.10;99.90
71084;DHT22;58741;52.672;13.548;2023-11-19T13:11:07;11.00;99.90
71084;DHT22;58741;52.672;13.548;2023-11-19T13:14:00;11.00;99.90
71084;DHT22;58741;52.672;13.548;2023-11-19T13:16:27;11.10;99.90
71084;DHT22;58741;52.672;13.548;2023-11-19T13:18:55;11.00;99.90
71084;DHT22;58741;52.672;13.548;2023-11-19T13:21:24;11.00;99.90
71084;DHT22;58741;52.672;13.548;2023-11-19T13:23:51;11.10;99.90
71084;DHT22;58741;52.672;13.548;2023-11-19T13:26:18;11.10;99.90
71084;DHT22;58741;52.672;13.548;2023-11-19T13:28:45;11.10;99.90
71084;DHT22;58741;52.672;13.548;2023-11-19T13:31:12;11.10;99.90
71084;DHT22;58741;52.672;13.548;2023-11-19T13:33:41;11.10;99.90
71084;DHT22;58741;52.672;13.548;2023-11-19T13:36:08;11.10;99.90
71084;DHT22;58741;52.672;13.548;2023-11-19T13:38:38;11.10;99.90
71084;DHT22;58741;52.672;13.548;2023-11-19T13:41:07;11.10;99.90
71084;DHT22;58741;52.672;13.548;2023-11-19T13:43:36;11.10;99.90
71084;DHT22;58741;52.672;13.548;2023-11-19T13:46:03;11.10;99.90
71084;DHT22;58741;52.672;13.548;2023-11-19T13:48:30;11.10;99.90
71084;DHT22;58741;52.672;13.548;2023-11-19T13:50:58;11.00;99.90
71084;DHT22;58741;52.672;13.548;2023-11-19T13:53:24;11.00;99.90
71084;DHT22;58741;52.672;13.548;2023-11-19T13:55:51;11.00;99.90
71084;DHT22;58741;52.672;13.548;2023-11-19T13:58:19;11.00;99.90
71084;DHT22;58741;52.672;13.548;2023-11-19T14:00:46;11.00;99.90
71084;DHT22;58741;52.672;13.548;2023-11-19T14:03:13;11.00;99.90
71084;DHT22;58741;52.672;13.548;2023-11-19T14:05:41;11.00;99.90
71084;DHT22;58741;52.672;13.548;2023-11-19T14:08:09;10.90;99.90
71084;DHT22;58741;52.672;13.548;2023-11-19T14:10:51;10.90;99.90
71084;DHT22;58741;52.672;13.548;2023-11-19T14:13:19;10.90;99.90
71084;DHT22;58741;52.672;13.548;2023-11-19T14:15:45;10.90;99.90
71084;DHT22;58741;52.672;13.548;2023-11-19T14:18:16;10.90;99.90
71084;DHT22;58741;52.672;13.548;2023-11-19T14:20:43;10.90;99.90
71084;DHT22;58741;52.672;13.548;2023-11-19T14:23:10;10.80;99.90
71084;DHT22;58741;52.672;13.548;2023-11-19T14:25:37;10.80;99.90
71084;DHT22;58741;52.672;13.548;2023-11-19T14:28:04;10.80;99.90
71084;DHT22;58741;52.672;13.548;2023-11-19T14:30:32;10.80;99.90
71084;DHT22;58741;52.672;13.548;2023-11-19T14:33:00;10.80;99.90
71084;DHT22;58741;52.672;13.548;2023-11-19T14:35:27;10.80;99.90
71084;DHT22;58741;52.672;13.548;2023-11-19T14:37:56;10.80;99.90
71084;DHT22;58741;52.672;13.548;2023-11-19T14:40:23;10.70;99.90
71084;DHT22;58741;52.672;13.548;2023-11-19T14:43:08;10.70;99.90
71084;DHT22;58741;52.672;13.548;2023-11-19T14:45:38;10.70;99.90
71084;DHT22;58741;52.672;13.548;2023-11-19T14:48:15;10.70;99.90
71084;DHT22;58741;52.672;13.548;2023-11-19T14:50:44;10.70;99.90
71084;DHT22;58741;52.672;13.548;2023-11-19T14:53:14;10.70;99.90
71084;DHT22;58741;52.672;13.548;2023-11-19T14:55:42;10.70;99.90
71084;DHT22;58741;52.672;13.548;2023-11-19T14:58:09;10.60;99.90
71084;DHT22;58741;52.672;13.548;2023-11-19T15:00:40;10.60;99.90
71084;DHT22;58741;52.672;13.548;2023-11-19T15:03:06;10.60;99.90
71084;DHT22;58741;52.672;13.548;2023-11-19T15:05:35;10.60;99.90
71084;DHT22;58741;52.672;13.548;2023-11-19T15:08:02;10.60;99.90
71084;DHT22;58741;52.672;13.548;2023-11-19T15:10:30;10.60;99.90
71084;DHT22;58741;52.672;13.548;2023-11-19T15:12:56;10.50;99.90
71084;DHT22;58741;52.672;13.548;2023-11-19T15:15:24;10.60;99.90
71084;DHT22;58741;52.672;13.548;2023-11-19T15:17:54;10.60;99.90
71084;DHT22;58741;52.672;13.548;2023-11-19T15:20:21;10.60;99.90
71084;DHT22;58741;52.672;13.548;2023-11-19T15:22:48;10.60;99.90
71084;DHT22;58741;52.672;13.548;2023-11-19T15:25:14;10.60;99.90
71084;DHT22;58741;52.672;13.548;2023-11-19T15:27:41;10.60;99.90
71084;DHT22;58741;52.672;13.548;2023-11-19T15:30:08;10.60;99.90
71084;DHT22;58741;52.672;13.548;2023-11-19T15:32:37;10.60;99.90
71084;DHT22;58741;52.672;13.548;2023-11-19T15:35:04;10.60;99.90
71084;DHT22;58741;52.672;13.548;2023-11-19T15:37:34;10.60;99.90
71084;DHT22;58741;52.672;13.548;2023-11-19T15:40:02;10.60;99.90
71084;DHT22;58741;52.672;13.548;2023-11-19T15:42:31;10.60;99.90
71084;DHT22;58741;52.672;13.548;2023-11-19T15:44:57;10.60;99.90
71084;DHT22;58741;52.672;13.548;2023-11-19T15:47:25;10.60;99.90
71084;DHT22;58741;52.672;13.548;2023-11-19T15:49:51;10.60;99.90
71084;DHT22;58741;52.672;13.548;2023-11-19T15:52:18;10.60;99.90